Latest Weather Observations for Scone Airport

IDN60801

Issued at 6:43 pm EDT Monday 4 March 2024 (issued every 10 minutes, with the page automatically refreshed every 10 minutes)

About weather observations | Map of weather stations | Latest weather observations for NSW | Other Formats
Station Details ID: 061363 Name: SCONE AIRPORT AWS Lat: -32.03 Lon: 150.83 Height: 221.4 m
Data from the previous 72 hours. | See also: Recent months at Scone Airport
Date/Time
EDT
Temp
°C
App
Temp
°C
Dew
Point
°C
Rel
Hum
%
Delta-T
°C
Wind Press
QNH
hPa
Press
MSL
hPa
Rain since
9am
mm
Dir  Spd
km/h
Gust
km/h
Spd
kts
Gust
kts
04/06:30pm 21.2 15.0 13.9 63 4.3 SSE 39 50 21 27 1020.0 1019.2 0.0
04/06:00pm 22.4 17.0 14.0 59 4.9 SE 35 50 19 27 1019.6 1018.8 0.0
04/05:30pm 23.6 18.6 14.0 55 5.7 SE 33 48 18 26 1019.5 1018.7 0.0
04/05:00pm 24.5 19.6 14.3 53 6.1 SE 33 43 18 23 1019.1 1018.2 0.0
04/04:30pm 25.6 20.9 14.4 50 6.7 SE 32 41 17 22 1019.1 1018.2 0.0
04/04:00pm 25.5 21.2 14.3 50 6.7 SE 30 37 16 20 1019.3 1018.5 0.0
04/03:30pm 26.2 22.0 14.6 48 7.0 SE 30 37 16 20 1019.4 1018.6 0.0
04/03:00pm 26.1 22.6 14.6 49 6.9 SE 26 35 14 19 1019.6 1018.8 0.0
04/02:30pm 25.5 21.7 14.6 51 6.6 SE 28 35 15 19 1019.8 1019.0 0.0
04/02:00pm 25.0 20.4 14.5 52 6.3 SE 32 43 17 23 1020.1 1019.3 0.0
04/01:30pm 25.2 20.6 15.2 54 6.1 SSE 33 46 18 25 1020.3 1019.5 0.0
04/01:00pm 24.5 20.0 14.9 55 5.8 SSE 32 39 17 21 1020.3 1019.5 0.0
04/12:30pm 24.8 20.9 15.4 56 5.7 SSE 30 41 16 22 1020.5 1019.7 0.0
04/12:16pm 24.9 20.6 15.5 56 5.7 SE 32 50 17 27 1020.5 1019.7 0.0
04/12:00pm 24.2 20.0 15.7 59 5.2 SE 32 41 17 22 1020.8 1020.0 0.0
04/11:30am 23.6 19.2 15.6 61 4.9 SE 33 44 18 24 1020.9 1020.1 0.0
04/11:00am 24.7 20.7 16.2 59 5.2 SE 32 44 17 24 1020.8 1020.0 0.0
04/10:30am 22.9 18.6 16.0 65 4.2 SE 33 44 18 24 1020.8 1020.0 0.0
04/10:00am 23.2 19.2 16.3 65 4.2 SE 32 43 17 23 1020.6 1019.8 0.0
04/09:30am 23.0 19.8 16.3 66 4.1 SE 28 39 15 21 1020.1 1019.3 0.0
04/09:00am 22.9 20.0 16.2 66 4.1 SE 26 32 14 17 1019.9 1019.1 0.0
04/08:30am 22.7 20.7 16.5 68 3.8 SSE 22 32 12 17 1019.4 1018.6 0.0
04/08:06am 21.7 20.0 16.2 71 3.4 SSE 20 28 11 15 1019.2 1018.3 0.0
04/08:00am 21.3 19.8 16.7 75 2.8 SSE 20 28 11 15 1019.1 1018.2 0.0
04/07:30am 20.5 18.9 16.5 78 2.4 SSE 20 26 11 14 1018.9 1018.0 0.0
04/07:00am 20.5 18.7 16.9 80 2.2 S 22 28 12 15 1018.4 1017.5 0.0
04/06:48am 20.5 18.4 17.1 81 2.1 SSE 24 32 13 17 1018.3 1017.4 0.0
04/06:30am 20.5 18.5 17.3 82 2.0 S 24 32 13 17 1017.9 1017.0 0.0
04/06:24am 20.6 18.6 17.4 82 2.0 S 24 30 13 16 1017.9 1017.0 0.0
04/06:00am 20.8 18.2 17.8 83 1.9 S 28 35 15 19 1017.4 1016.5 0.0
04/05:30am 21.3 19.5 18.7 85 1.6 S 26 33 14 18 1016.7 1015.8 0.0
04/05:00am 21.5 21.3 19.4 88 1.3 SSE 19 26 10 14 1016.3 1015.5 0.0
04/04:48am 21.3 22.7 19.6 90 1.1 SSE 11 19 6 10 1016.2 1015.4 0.0
04/04:36am 20.8 21.5 18.9 89 1.2 SSE 13 17 7 9 1016.2 1015.4 0.0
04/04:30am 20.9 21.6 18.8 88 1.3 S 13 19 7 10 1016.2 1015.4 0.0
04/04:00am 19.3 19.5 14.6 74 2.8 SSE 7 11 4 6 1015.9 1015.1 0.0
04/03:37am 17.7 18.8 13.6 77 2.3 CALM 0 0 0 0 1015.8 1015.0 0.0
04/03:30am 17.2 17.7 12.7 75 2.5 WSW 2 9 1 5 1015.8 1015.0 0.0
04/03:00am 15.8 15.6 11.8 77 2.2 NNE 4 6 2 3 1015.5 1014.7 0.0
04/02:30am 15.2 14.9 11.4 78 2.1 NE 4 7 2 4 1015.4 1014.6 0.0
04/02:00am 16.4 16.6 10.5 68 3.2 CALM 0 0 0 0 1015.4 1014.6 0.0
04/01:30am 17.0 15.0 10.1 64 3.7 WSW 11 13 6 7 1015.2 1014.3 0.0
04/01:00am 16.4 14.9 10.5 68 3.2 W 9 13 5 7 1014.9 1014.0 0.0
04/12:30am 17.2 17.0 10.3 64 3.7 ENE 2 7 1 4 1014.9 1014.0 0.0
04/12:00am 18.9 19.0 10.2 57 4.7 CALM 0 0 0 0 1014.9 1014.0 0.0
 
Date/Time
EDT
Temp
°C
App
Temp
°C
Dew
Point
°C
Rel
Hum
%
Delta-T
°C
Wind Press
QNH
hPa
Press
MSL
hPa
Rain since
9am
mm
Dir  Spd
km/h
Gust
km/h
Spd
kts
Gust
kts
03/11:30pm 19.2 17.7 9.1 52 5.4 NW 7 9 4 5 1014.7 1013.8 0.0
03/11:00pm 20.1 18.1 8.8 48 6.0 WNW 9 11 5 6 1014.5 1013.6 0.0
03/10:30pm 21.0 19.5 8.6 45 6.6 ESE 6 9 3 5 1014.2 1013.3 0.0
03/10:00pm 23.1 20.7 7.2 36 8.3 N 9 13 5 7 1013.6 1012.7 0.0
03/09:30pm 22.7 21.4 7.7 38 7.9 ENE 4 9 2 5 1013.3 1012.4 0.0
03/09:00pm 26.6 23.0 5.0 25 11.1 W 13 20 7 11 1012.6 1011.7 0.0
03/08:30pm 26.3 22.5 5.8 27 10.7 W 15 19 8 10 1012.4 1011.5 0.0
03/08:00pm 27.6 23.4 5.8 25 11.5 W 17 22 9 12 1012.0 1011.1 0.0
03/07:30pm 28.3 24.6 6.4 25 11.7 W 15 20 8 11 1011.5 1010.7 0.0
03/07:00pm 30.9 26.4 6.0 21 13.4 W 19 26 10 14 1010.9 1010.0 0.0
03/06:30pm 32.4 26.4 3.4 16 15.0 WSW 24 33 13 18 1010.7 1009.8 0.0
03/06:00pm 33.4 28.5 5.0 17 15.2 SW 20 28 11 15 1010.5 1009.6 0.0
03/05:30pm 34.0 28.0 7.1 19 14.9 WSW 28 37 15 20 1010.4 1009.5 0.0
03/05:00pm 34.1 30.5 10.0 23 14.0 WNW 19 32 10 17 1010.2 1009.3 0.0
03/04:30pm 34.3 30.0 10.8 24 13.8 WNW 24 32 13 17 1010.3 1009.4 0.0
03/04:00pm 34.3 29.6 10.8 24 13.9 WNW 26 39 14 21 1010.6 1009.7 0.0
03/03:30pm 33.9 29.1 11.7 26 13.2 WNW 28 41 15 22 1010.8 1009.9 0.0
03/03:00pm 33.2 28.5 14.3 32 11.7 WNW 32 46 17 25 1011.3 1010.4 0.0
03/02:48pm 34.0 29.4 13.5 29 12.6 W 30 48 16 26 1011.4 1010.6 0.0
03/02:30pm 33.3 29.1 15.8 35 11.0 W 32 44 17 24 1011.6 1010.8 0.0
03/02:05pm 33.4 29.7 14.9 32 11.5 WSW 28 46 15 25 1012.1 1011.2 0.0
03/02:00pm 32.7 29.5 15.2 34 10.9 WSW 26 43 14 23 1012.1 1011.2 0.0
03/01:58pm 33.3 29.5 14.8 32 11.5 WSW 28 43 15 23 1012.3 1011.4 0.0
03/01:30pm 31.8 33.4 19.1 47 8.4 SE 9 20 5 11 1012.6 1011.7 0.0
03/01:00pm 30.0 32.0 20.0 55 6.6 SE 9 17 5 9 1013.1 1012.2 0.0
03/12:30pm 28.9 31.2 19.5 57 6.2 W 6 13 3 7 1013.6 1012.7 0.0
03/12:00pm 27.5 29.7 19.6 62 5.2 SSE 7 15 4 8 1014.3 1013.4 0.0
03/11:30am 26.3 28.4 19.4 66 4.5 SSW 7 11 4 6 1014.9 1014.0 0.0
03/11:00am 24.2 27.4 18.8 72 3.5 CALM 0 2 0 1 1015.0 1014.1 0.0
03/10:57am 23.9 26.5 18.5 72 3.4 N 2 7 1 4 1014.9 1014.0 0.0
03/10:30am 24.0 27.3 19.1 74 3.2 CALM 0 9 0 5 1015.2 1014.3 0.0
03/10:00am 23.0 25.2 19.2 79 2.4 WNW 6 11 3 6 1015.3 1014.5 0.0
03/09:30am 22.1 25.5 19.3 84 1.8 CALM 0 0 0 0 1015.3 1014.5 0.0
03/09:00am 21.5 25.0 19.6 89 1.2 CALM 0 0 0 0 1015.5 1014.7 0.2
03/08:30am 21.1 23.5 20.1 94 0.6 SSE 7 11 4 6 1015.4 1014.6 0.2
03/08:00am 20.5 23.1 20.5 100 0.0 SSW 7 9 4 5 1015.6 1014.8 0.2
03/07:30am 20.3 22.5 20.3 100 0.0 S 9 11 5 6 1015.1 1014.2 0.2
03/07:00am 20.2 22.3 20.2 100 0.0 SSE 9 13 5 7 1014.9 1014.0 0.2
03/06:30am 20.2 22.3 20.2 100 0.0 SSE 9 13 5 7 1014.7 1013.8 0.2
03/06:00am 20.1 23.9 20.1 100 0.0 CALM 0 0 0 0 1014.6 1013.7 0.2
03/05:30am 19.9 23.6 19.9 100 0.0 CALM 0 0 0 0 1014.4 1013.5 0.2
03/05:19am 19.5 23.0 19.5 100 0.0 CALM 0 0 0 0 1014.4 1013.5 0.2
03/05:00am 19.6 22.0 19.6 100 0.0 SSW 6 9 3 5 1014.4 1013.5 0.2
03/04:30am 20.1 21.8 20.1 100 0.0 S 11 15 6 8 1014.3 1013.4 0.2
03/04:00am 20.3 22.0 20.1 99 0.1 S 11 15 6 8 1014.5 1013.6 0.2
03/03:30am 20.1 21.7 19.9 99 0.1 S 11 15 6 8 1014.9 1014.0 0.2
03/03:00am 20.1 21.6 19.8 98 0.2 SSW 11 15 6 8 1015.2 1014.3 0.2
03/02:30am 20.1 21.1 19.4 96 0.4 S 13 17 7 9 1015.0 1014.1 0.2
03/02:00am 20.3 21.3 19.5 95 0.5 S 13 17 7 9 1015.3 1014.5 0.2
03/01:30am 20.5 21.6 19.7 95 0.5 S 13 19 7 10 1015.5 1014.7 0.2
03/01:00am 20.7 21.5 19.9 95 0.5 SSE 15 20 8 11 1015.8 1015.0 0.2
03/12:54am 20.7 21.0 19.7 94 0.6 S 17 24 9 13 1015.9 1015.1 0.2
03/12:30am 21.2 22.0 19.8 92 0.9 S 15 20 8 11 1016.3 1015.5 0.2
03/12:09am 21.3 22.8 20.6 96 0.5 S 13 20 7 11 1016.4 1015.6 0.2
03/12:05am 21.4 22.2 20.7 96 0.5 S 17 24 9 13 1016.4 1015.6 0.2
03/12:00am 21.4 21.8 20.7 96 0.5 S 19 24 10 13 1016.3 1015.5 0.2
 
Date/Time
EDT
Temp
°C
App
Temp
°C
Dew
Point
°C
Rel
Hum
%
Delta-T
°C
Wind Press
QNH
hPa
Press
MSL
hPa
Rain since
9am
mm
Dir  Spd
km/h
Gust
km/h
Spd
kts
Gust
kts
02/11:51pm 21.6 22.6 21.1 97 0.3 S 17 24 9 13 1016.5 1015.7 0.2
02/11:30pm 21.7 22.3 21.0 96 0.5 S 19 20 10 11 1016.5 1015.7 0.2
02/11:00pm 21.8 23.6 21.8 100 0.0 SSW 15 20 8 11 1016.8 1015.9 0.2
02/10:30pm 21.9 23.7 21.9 100 0.0 S 15 17 8 9 1016.5 1015.7 0.2
02/10:00pm 22.3 24.7 22.3 100 0.0 SSW 13 17 7 9 1016.4 1015.6 0.2
02/09:30pm 22.6 24.8 22.6 100 0.0 S 15 19 8 10 1016.0 1015.2 0.2
02/09:00pm 22.5 23.9 22.5 100 0.0 S 19 22 10 12 1015.4 1014.6 0.2
02/08:30pm 21.9 23.9 20.7 93 0.8 S 11 13 6 7 1014.7 1013.8 0.2
02/08:00pm 22.4 25.0 20.1 87 1.5 S 6 7 3 4 1014.5 1013.6 0.2
02/07:30pm 22.8 25.3 20.3 86 1.6 WSW 7 9 4 5 1014.2 1013.3 0.2
02/07:00pm 23.4 25.8 20.0 81 2.2 W 7 9 4 5 1013.9 1013.0 0.2
02/06:30pm 23.8 25.7 20.5 82 2.2 NNW 11 13 6 7 1013.7 1012.8 0.2
02/06:00pm 25.1 28.3 20.6 76 3.0 N 4 7 2 4 1014.0 1013.1 0.0
02/05:30pm 26.0 28.9 18.2 62 5.0 CALM 0 0 0 0 1014.3 1013.4 0.0
02/05:00pm 26.2 29.0 18.9 64 4.7 SE 2 6 1 3 1014.7 1013.8 0.0
02/04:30pm 25.6 26.5 19.3 68 4.1 S 13 15 7 8 1014.9 1014.0 0.0
02/04:00pm 27.7 26.7 16.6 50 7.0 S 17 24 9 13 1014.8 1013.9 0.0
02/03:30pm 28.6 26.9 15.8 45 8.0 S 19 26 10 14 1014.5 1013.6 0.0
02/03:00pm 29.0 25.6 14.8 42 8.7 SSW 26 35 14 19 1013.7 1012.8 0.0
02/02:31pm 29.6 24.5 15.7 43 8.7 SSW 37 56 20 30 1013.0 1012.1 0.0
02/02:30pm 29.6 23.8 15.0 41 9.0 SSW 39 56 21 30 1013.1 1012.2 0.0
02/02:18pm 29.8 25.9 15.5 42 8.9 WSW 30 50 16 27 1012.9 1012.0 0.0
02/02:00pm 31.9 30.0 18.5 45 8.8 NW 26 39 14 21 1011.9 1011.0 0.0
02/01:30pm 33.2 33.2 18.9 42 9.4 NW 17 24 9 13 1011.6 1010.8 0.0
02/01:00pm 34.0 33.9 19.6 42 9.6 WNW 19 28 10 15 1012.2 1011.3 0.0
02/12:30pm 34.3 33.3 18.8 40 10.2 NW 22 35 12 19 1012.6 1011.7 0.0
02/12:00pm 32.6 32.3 19.1 44 8.9 NW 19 28 10 15 1013.0 1012.1 0.0
02/11:30am 32.2 31.7 19.1 45 8.6 NW 20 30 11 16 1013.1 1012.2 0.0
02/11:00am 31.9 30.5 18.8 45 8.6 NW 24 35 13 19 1013.1 1012.2 0.0
02/10:30am 32.5 32.0 19.0 44 8.9 NNW 20 33 11 18 1012.9 1012.0 0.0
02/10:00am 31.3 30.0 19.0 48 8.1 NW 24 33 13 18 1012.8 1011.9 0.0
02/09:30am 30.8 29.6 19.2 50 7.6 NW 24 37 13 20 1012.8 1011.9 0.0
02/09:00am 30.5 29.0 18.6 49 7.8 NW 24 37 13 20 1012.7 1011.8 0.0
02/08:30am 30.1 29.6 19.2 52 7.1 NW 20 32 11 17 1012.5 1011.6 0.0
02/08:00am 28.9 29.3 18.9 54 6.5 NW 15 24 8 13 1012.5 1011.6 0.0
02/07:30am 27.8 27.0 18.5 57 6.0 NW 20 28 11 15 1012.2 1011.3 0.0
02/07:00am 25.8 27.4 19.9 70 3.9 NW 11 17 6 9 1012.0 1011.1 0.0
02/06:30am 24.1 27.4 20.8 82 2.2 NE 4 7 2 4 1011.5 1010.7 0.0
02/06:00am 23.5 28.2 21.9 91 1.1 CALM 0 0 0 0 1011.3 1010.4 0.0
02/05:30am 23.4 28.1 22.0 92 0.9 CALM 0 0 0 0 1011.0 1010.1 0.0
02/05:00am 23.4 28.1 22.0 92 0.9 CALM 0 0 0 0 1010.8 1009.9 0.0
02/04:30am 23.8 28.0 21.7 88 1.4 N 2 6 1 3 1010.5 1009.6 0.0
02/04:00am 23.3 26.6 21.4 89 1.3 NNE 6 7 3 4 1010.5 1009.6 0.0
02/03:30am 23.6 27.5 21.9 90 1.1 NW 4 6 2 3 1010.8 1009.9 0.0
02/03:00am 23.9 28.7 22.2 90 1.1 CALM 0 0 0 0 1011.1 1010.2 0.0
02/02:30am 24.0 27.3 21.5 86 1.7 N 6 7 3 4 1011.3 1010.4 0.0
02/02:00am 24.1 27.5 21.6 86 1.7 W 6 7 3 4 1011.5 1010.7 0.0
02/01:30am 24.3 27.6 21.8 86 1.7 W 7 11 4 6 1011.6 1010.8 0.0
02/01:00am 25.0 29.1 20.7 77 2.8 CALM 0 0 0 0 1012.0 1011.1 0.0
02/12:30am 24.7 27.6 21.0 80 2.5 W 7 9 4 5 1012.3 1011.4 0.0
02/12:00am 24.9 27.5 20.4 76 3.0 WNW 7 11 4 6 1012.6 1011.7 0.0
 
Date/Time
EDT
Temp
°C
App
Temp
°C
Dew
Point
°C
Rel
Hum
%
Delta-T
°C
Wind Press
QNH
hPa
Press
MSL
hPa
Rain since
9am
mm
Dir  Spd
km/h
Gust
km/h
Spd
kts
Gust
kts
01/11:30pm 25.3 27.5 20.5 75 3.2 NW 9 13 5 7 1012.5 1011.6 0.0
01/11:00pm 25.6 29.7 21.5 78 2.7 NE 2 6 1 3 1013.0 1012.1 0.0
01/10:30pm 26.0 29.9 21.2 75 3.2 NW 2 11 1 6 1012.8 1011.9 0.0
01/10:00pm 27.0 30.0 22.0 74 3.4 NW 9 11 5 6 1012.7 1011.8 0.0
01/09:30pm 28.3 31.4 22.1 69 4.2 NE 9 11 5 6 1012.5 1011.6 0.0
01/09:00pm 30.0 32.8 20.8 57 6.2 SW 7 13 4 7 1012.8 1011.9 0.0
01/08:30pm 30.4 31.3 20.0 53 6.9 SSW 15 17 8 9 1012.5 1011.6 0.0
01/08:00pm 31.1 31.3 19.4 49 7.7 S 17 20 9 11 1011.6 1010.8 0.0
01/07:30pm 31.6 32.4 19.9 50 7.8 S 15 15 8 8 1011.4 1010.6 0.0
01/07:00pm 32.6 33.7 18.8 44 9.1 SSE 11 13 6 7 1011.0 1010.1 0.0

Other formats

Comma delimited format used in spreadsheet applications
http://www.bom.gov.au/fwo/IDN60801/IDN60801.95758.axf

JavaScript Object Notation format (JSON) in row-major order
http://www.bom.gov.au/fwo/IDN60801/IDN60801.95758.json

Data quality

Most of these data are generated automatically and are frequently updated. Quality checks on data are not normally performed. It is possible for incorrect values to appear. Refer to information at About Latest Weather Observations and please check the disclaimer before using these data.